Time;durP1;ratioP1;P1;durP2;ratioP2;P2;SDS_P1;SDS_P2;PMS_P1;PMS_P2;Temp;Humidity;BMP_temperature;BMP_pressure;BME280_temperature;BME280_humidity;BME280_pressure;Samples;Min_cycle;Max_cycle;Signal;HPM_P1;HPM_P2
2023/08/01 00:02:07;;;;;;;13.98;9.27;;;;;;;17.96;76.09;98623.81;4920160;28;20417;-67
2023/08/01 00:04:33;;;;;;;17.55;9.02;;;;;;;17.93;76.26;98621.50;4928706;28;20408;-65
2023/08/01 00:06:58;;;;;;;15.77;10.07;;;;;;;17.92;76.72;98626.03;4937569;28;20390;-65
2023/08/01 00:09:24;;;;;;;15.98;9.98;;;;;;;17.91;76.84;98616.28;4937588;28;20047;-65
2023/08/01 00:11:54;;;;;;;16.90;8.63;;;;;;;17.92;76.54;98617.13;4937267;28;20050;-65
2023/08/01 00:14:20;;;;;;;13.70;8.80;;;;;;;17.91;76.31;98623.53;4937429;28;20053;-65
2023/08/01 00:16:45;;;;;;;13.80;8.27;;;;;;;17.88;76.66;98623.88;4937062;28;20046;-66
2023/08/01 00:19:10;;;;;;;14.50;8.80;;;;;;;17.85;76.73;98618.84;4933303;28;20051;-65
2023/08/01 00:21:36;;;;;;;11.57;8.23;;;;;;;17.82;76.92;98628.16;4935561;28;20053;-65
2023/08/01 00:24:03;;;;;;;12.63;8.73;;;;;;;17.83;76.27;98620.91;4901201;28;20065;-65
2023/08/01 00:26:31;;;;;;;13.20;8.65;;;;;;;17.84;76.47;98622.56;4935502;28;20051;-66
2023/08/01 00:28:56;;;;;;;21.08;8.52;;;;;;;17.84;76.15;98620.69;4934490;28;20035;-65
2023/08/01 00:31:24;;;;;;;16.58;8.65;;;;;;;17.83;76.82;98621.75;4934092;28;20061;-64
2023/08/01 00:33:50;;;;;;;11.82;8.70;;;;;;;17.81;76.97;98622.94;4933753;28;20047;-64
2023/08/01 00:36:20;;;;;;;16.90;9.27;;;;;;;17.82;77.59;98632.69;4936488;28;20207;-66
2023/08/01 00:38:45;;;;;;;13.95;9.07;;;;;;;17.72;77.88;98631.06;4934631;28;20527;-65
2023/08/01 00:41:10;;;;;;;13.52;8.88;;;;;;;17.66;77.75;98629.09;4934455;28;20501;-66
2023/08/01 00:43:38;;;;;;;16.10;8.75;;;;;;;17.63;77.89;98621.38;4934401;28;20042;-65
2023/08/01 00:46:10;;;;;;;18.40;8.82;;;;;;;17.62;77.74;98626.91;4935660;28;20502;-66
2023/08/01 00:51:32;;;;;;;14.32;9.02;;;;;;;17.67;76.85;98628.09;4932861;28;20047;-67
2023/08/01 00:54:00;;;;;;;18.58;9.13;;;;;;;17.69;76.58;98631.44;4934634;28;20053;-65
2023/08/01 00:56:31;;;;;;;14.07;9.25;;;;;;;17.72;76.12;98620.28;4936594;28;20049;-65
2023/08/01 00:58:56;;;;;;;16.48;9.70;;;;;;;17.73;75.84;98621.97;4926976;28;20050;-67
2023/08/01 01:01:22;;;;;;;17.50;9.98;;;;;;;17.71;76.40;98629.41;4932302;28;20050;-66
2023/08/01 01:03:50;;;;;;;13.77;9.50;;;;;;;17.72;76.43;98636.44;4932884;28;20057;-65
2023/08/01 01:06:52;;;;;;;19.27;9.13;;;;;;;17.78;75.94;98635.75;4933875;28;20057;-66
2023/08/01 01:09:20;;;;;;;13.40;9.35;;;;;;;17.69;76.14;98642.22;4933222;28;20035;-66
2023/08/01 01:11:46;;;;;;;15.23;9.65;;;;;;;17.66;76.46;98641.72;4933195;28;20058;-67
2023/08/01 01:14:11;;;;;;;29.55;8.95;;;;;;;17.61;76.78;98631.44;4934846;28;20034;-67
2023/08/01 01:16:38;;;;;;;17.20;9.55;;;;;;;17.58;77.56;98648.00;4935023;28;20051;-67
2023/08/01 01:19:09;;;;;;;14.82;9.05;;;;;;;17.55;77.67;98639.41;4935795;28;20070;-67
2023/08/01 01:21:44;;;;;;;13.40;7.93;;;;;;;17.52;78.07;98637.91;4936326;28;20047;-66
2023/08/01 01:24:11;;;;;;;16.40;10.27;;;;;;;17.47;78.45;98637.63;4936473;28;20042;-67
2023/08/01 01:26:39;;;;;;;15.82;8.98;;;;;;;17.44;78.48;98637.97;4934546;28;20062;-66
2023/08/01 01:29:08;;;;;;;13.77;8.73;;;;;;;17.41;78.81;98641.84;4933118;28;20772;-66
2023/08/01 01:31:35;;;;;;;14.05;8.70;;;;;;;17.39;78.86;98638.50;4916181;28;20051;-66
2023/08/01 01:34:01;;;;;;;15.75;9.85;;;;;;;17.40;78.64;98639.34;4902473;28;20043;-67
2023/08/01 01:36:29;;;;;;;13.07;8.98;;;;;;;17.41;78.75;98643.72;4932070;28;20050;-67
2023/08/01 01:38:55;;;;;;;15.55;8.35;;;;;;;17.45;78.26;98644.19;4932515;28;20513;-67
2023/08/01 01:41:22;;;;;;;16.42;9.93;;;;;;;17.46;78.33;98644.03;4902678;28;20059;-69
2023/08/01 01:46:40;;;;;;;15.73;10.13;;;;;;;17.41;78.57;98638.31;4932282;28;20042;-67
2023/08/01 01:49:06;;;;;;;14.10;8.20;;;;;;;17.38;78.95;98644.09;4935546;28;20409;-66
2023/08/01 01:51:33;;;;;;;16.73;9.95;;;;;;;17.38;79.47;98652.16;4918068;28;20054;-66
2023/08/01 01:53:58;;;;;;;14.73;9.48;;;;;;;17.34;80.12;98643.59;4935541;28;20039;-66
2023/08/01 01:56:28;;;;;;;13.10;8.65;;;;;;;17.29;80.01;98651.34;4934022;28;20046;-66
2023/08/01 01:58:54;;;;;;;17.92;9.93;;;;;;;17.27;80.38;98647.16;4948713;28;20506;-66
2023/08/01 02:01:21;;;;;;;16.42;10.10;;;;;;;17.22;80.61;98644.16;4933410;28;20058;-66
2023/08/01 02:03:46;;;;;;;15.25;10.60;;;;;;;17.25;80.83;98641.97;4935263;28;20046;-65
2023/08/01 02:09:12;;;;;;;16.63;10.05;;;;;;;17.28;80.55;98646.13;4935593;28;20521;-66
2023/08/01 02:11:40;;;;;;;15.30;9.60;;;;;;;17.33;80.77;98641.06;4937680;28;20043;-66
2023/08/01 02:14:33;;;;;;;14.13;9.80;;;;;;;17.39;80.61;98643.88;4930081;28;20540;-67
2023/08/01 02:17:05;;;;;;;16.10;9.60;;;;;;;17.42;80.08;98638.16;4938296;28;20043;-67
2023/08/01 02:19:34;;;;;;;13.52;8.80;;;;;;;17.49;79.68;98646.38;4919891;28;20047;-66
2023/08/01 02:22:01;;;;;;;14.75;9.55;;;;;;;17.54;79.24;98638.56;4950766;28;20049;-66
2023/08/01 02:24:51;;;;;;;15.00;9.13;;;;;;;17.61;79.65;98641.38;4938386;28;20054;-66
2023/08/01 02:27:18;;;;;;;17.45;9.43;;;;;;;17.67;79.25;98638.03;4925769;28;20054;-67
2023/08/01 02:29:44;;;;;;;13.75;9.40;;;;;;;17.75;78.72;98636.09;4954272;28;20520;-67
2023/08/01 02:32:12;;;;;;;15.35;9.57;;;;;;;17.83;78.26;98643.31;4939322;28;20046;-65
2023/08/01 02:34:37;;;;;;;13.80;9.63;;;;;;;17.93;77.99;98641.22;4949203;28;20047;-66
2023/08/01 02:37:02;;;;;;;13.45;9.93;;;;;;;18.01;77.60;98637.59;4939225;28;20401;-69
2023/08/01 02:39:27;;;;;;;15.85;10.20;;;;;;;18.09;76.87;98642.91;4937677;28;20055;-74
2023/08/01 02:41:55;;;;;;;19.10;9.88;;;;;;;18.16;76.12;98643.88;4939647;28;20042;-67
2023/08/01 02:44:20;;;;;;;15.35;9.57;;;;;;;18.22;75.88;98636.91;4921262;28;20055;-70
2023/08/01 02:46:49;;;;;;;16.77;9.65;;;;;;;18.26;75.38;98636.38;4922126;28;20054;-72
2023/08/01 02:49:16;;;;;;;19.45;10.48;;;;;;;18.33;75.09;98642.69;4939434;28;20051;-68
2023/08/01 02:51:43;;;;;;;17.05;9.75;;;;;;;18.40;75.09;98640.09;4918376;28;20390;-70
2023/08/01 02:54:34;;;;;;;14.93;9.40;;;;;;;18.58;75.25;98637.09;4938466;28;20054;-71
2023/08/01 02:57:00;;;;;;;16.83;9.20;;;;;;;18.62;75.07;98641.13;4937430;28;20042;-71
2023/08/01 02:59:29;;;;;;;17.13;8.65;;;;;;;18.73;74.42;98643.34;4921838;28;20050;-71
2023/08/01 03:01:54;;;;;;;16.85;9.25;;;;;;;18.82;74.13;98644.94;4937577;28;20073;-70
2023/08/01 03:04:21;;;;;;;14.88;9.13;;;;;;;18.86;73.34;98706.47;4921284;28;20504;-68
2023/08/01 03:06:48;;;;;;;14.20;9.00;;;;;;;18.98;72.94;98703.31;4938743;28;20501;-69
2023/08/01 03:09:14;;;;;;;15.93;9.35;;;;;;;19.07;72.82;98703.06;4938638;28;20054;-67
2023/08/01 03:14:34;;;;;;;;;;;;;;;19.45;72.18;98711.00;4919543;28;20524;-67
2023/08/01 03:16:59;;;;;;;24.67;8.60;;;;;;;19.46;71.70;98712.69;4919490;29;19918;-70
2023/08/01 03:19:25;;;;;;;15.07;8.60;;;;;;;19.55;71.40;98707.03;4918819;29;20063;-68
2023/08/01 03:22:19;;;;;;;15.35;8.88;;;;;;;19.75;70.20;98709.13;4935428;28;20069;-68
2023/08/01 03:24:46;;;;;;;14.60;9.18;;;;;;;19.76;70.16;98708.94;4937359;28;20370;-68
2023/08/01 03:27:14;;;;;;;14.48;8.85;;;;;;;19.84;69.42;98700.72;4937404;28;20051;-70
2023/08/01 03:30:08;;;;;;;16.23;9.00;;;;;;;20.00;68.71;98715.00;4936691;28;20057;-72
2023/08/01 03:32:36;;;;;;;11.38;8.90;;;;;;;20.07;68.51;98714.06;4935079;28;20050;-69
2023/08/01 03:35:04;;;;;;;15.88;8.70;;;;;;;20.14;68.11;98723.06;4933359;28;20054;-70
2023/08/01 03:37:31;;;;;;;12.77;8.32;;;;;;;20.21;67.58;98710.44;4934004;28;20501;-71
2023/08/01 03:39:57;;;;;;;11.57;8.32;;;;;;;20.29;67.58;98720.31;4935704;28;20050;-71
2023/08/01 03:42:22;;;;;;;12.15;8.27;;;;;;;20.38;67.74;98718.34;4935392;28;20047;-70
2023/08/01 03:47:37;;;;;;;13.88;8.50;;;;;;;20.59;66.53;98724.56;4935125;28;20046;-70
2023/08/01 03:50:03;;;;;;;12.90;8.73;;;;;;;20.66;66.97;98706.47;4933759;28;20054;-70
2023/08/01 03:52:31;;;;;;;12.45;8.20;;;;;;;20.78;66.55;98720.31;4935870;28;20045;-73
2023/08/01 03:55:05;;;;;;;14.60;9.15;;;;;;;20.92;65.93;98753.78;4923750;28;20051;-73
2023/08/01 03:57:33;;;;;;;13.10;7.95;;;;;;;21.08;65.33;98725.56;4937512;28;20035;-71
2023/08/01 04:00:24;;;;;;;11.05;8.23;;;;;;;21.25;64.96;98733.19;4937046;28;20043;-71
2023/08/01 04:02:58;;;;;;;12.30;8.23;;;;;;;21.45;64.59;98759.56;4935520;28;20038;-73
2023/08/01 04:05:25;;;;;;;11.85;8.05;;;;;;;21.59;64.43;98745.88;4936727;28;20050;-72
2023/08/01 04:07:56;;;;;;;9.80;7.95;;;;;;;21.79;63.63;98739.69;4937716;28;20401;-71
2023/08/01 04:10:29;;;;;;;13.70;7.45;;;;;;;21.95;63.26;98733.91;4937627;28;20489;-73
2023/08/01 04:12:54;;;;;;;15.50;8.30;;;;;;;22.12;62.87;98745.28;4936580;28;20131;-72
2023/08/01 04:15:49;;;;;;;11.82;7.60;;;;;;;22.29;62.68;98739.25;4936819;28;20061;-71
2023/08/01 04:21:07;;;;;;;11.45;7.40;;;;;;;22.55;62.04;98743.03;4937326;28;20047;-71
2023/08/01 04:23:57;;;;;;;16.02;8.80;;;;;;;22.77;61.52;98741.81;4935907;28;20050;-71
2023/08/01 04:26:22;;;;;;;15.35;7.95;;;;;;;22.97;61.34;98733.63;4936632;28;20058;-69
2023/08/01 04:28:48;;;;;;;10.98;7.53;;;;;;;23.15;61.03;98734.66;4937147;28;20054;-69
2023/08/01 04:31:13;;;;;;;17.48;8.77;;;;;;;23.41;60.30;98752.78;4937296;28;20445;-69
2023/08/01 04:33:41;;;;;;;11.68;8.43;;;;;;;23.74;59.90;98724.66;4937283;28;20043;-69
2023/08/01 04:36:07;;;;;;;17.17;9.00;;;;;;;24.07;59.19;98738.09;4935976;28;20054;-68
2023/08/01 04:38:32;;;;;;;13.52;9.60;;;;;;;24.39;58.34;98728.06;4935609;28;20050;-69
2023/08/01 04:41:00;;;;;;;12.98;7.80;;;;;;;24.76;56.94;98735.34;4936937;28;20047;-69
2023/08/01 04:43:27;;;;;;;12.45;7.10;;;;;;;25.11;55.99;98726.66;4936941;28;20382;-68
2023/08/01 04:45:56;;;;;;;13.40;8.18;;;;;;;25.39;55.11;98740.66;4935943;28;20046;-69
2023/08/01 04:48:24;;;;;;;12.85;8.00;;;;;;;25.72;54.28;98761.31;4937068;28;20043;-68
2023/08/01 04:51:14;;;;;;;13.18;7.43;;;;;;;26.17;53.08;98754.41;4936890;28;20047;-68
2023/08/01 04:53:40;;;;;;;14.95;6.72;;;;;;;26.49;52.60;98729.59;4936931;28;20038;-69
2023/08/01 04:56:10;;;;;;;9.15;7.38;;;;;;;26.73;50.72;98740.34;4935512;28;20077;-70
2023/08/01 04:59:02;;;;;;;11.02;6.78;;;;;;;26.99;50.69;98730.84;4936626;28;20049;-69
2023/08/01 05:01:53;;;;;;;11.32;6.72;;;;;;;27.21;49.06;98728.34;4919729;28;20042;-69
2023/08/01 05:10:04;;;;;;;9.43;6.28;;;;;;;27.82;47.19;98736.03;4935232;28;20042;-70
2023/08/01 05:12:33;;;;;;;9.93;6.55;;;;;;;28.03;47.32;98748.22;4936839;28;20466;-69
2023/08/01 05:15:00;;;;;;;10.70;6.82;;;;;;;28.28;47.06;98742.44;4936538;28;20042;-69
2023/08/01 05:17:25;;;;;;;11.18;6.78;;;;;;;28.54;46.40;98739.09;4936633;28;20412;-69
2023/08/01 05:19:52;;;;;;;14.10;7.63;;;;;;;28.70;45.96;98744.81;4918008;28;20055;-68
2023/08/01 05:22:17;;;;;;;10.40;7.07;;;;;;;28.88;45.70;98761.09;4935579;28;20047;-69
2023/08/01 05:24:46;;;;;;;12.35;7.22;;;;;;;29.09;45.02;98738.38;4936513;28;20038;-74
2023/08/01 05:27:18;;;;;;;11.98;6.50;;;;;;;29.30;44.66;98749.66;4936526;28;20057;-74
2023/08/01 05:29:45;;;;;;;15.40;8.18;;;;;;;29.54;44.48;98745.63;4936693;28;20138;-74
2023/08/01 05:32:12;;;;;;;10.35;6.15;;;;;;;29.76;42.88;98753.88;4936602;28;20075;-74
2023/08/01 05:34:38;;;;;;;9.02;6.68;;;;;;;29.97;42.70;98744.84;4947019;28;20405;-74
2023/08/01 05:37:10;;;;;;;13.90;6.68;;;;;;;30.16;42.13;98754.41;4936680;28;20073;-75
2023/08/01 05:39:40;;;;;;;11.57;6.72;;;;;;;30.34;41.80;98755.97;4940225;28;20401;-71
2023/08/01 05:42:08;;;;;;;17.15;7.35;;;;;;;30.39;41.24;98758.75;4938735;28;20143;-70
2023/08/01 05:44:35;;;;;;;9.75;6.07;;;;;;;30.48;40.81;98748.13;4940460;28;20034;-70
2023/08/01 05:47:02;;;;;;;11.77;6.35;;;;;;;30.48;40.34;98743.44;4955493;28;20050;-71
2023/08/01 05:49:29;;;;;;;8.98;6.18;;;;;;;30.61;40.04;98751.31;4939014;28;20051;-70
2023/08/01 05:52:00;;;;;;;10.98;6.78;;;;;;;31.10;39.88;98756.72;4940118;28;20047;-72
2023/08/01 05:54:28;;;;;;;9.55;6.53;;;;;;;31.58;39.29;98752.91;4939856;28;20047;-72
2023/08/01 05:56:54;;;;;;;10.57;6.32;;;;;;;31.91;38.48;98750.88;4940105;28;20054;-72
2023/08/01 05:59:23;;;;;;;8.93;6.53;;;;;;;32.33;37.83;98753.50;4938885;28;20485;-72
2023/08/01 06:01:48;;;;;;;7.88;5.45;;;;;;;32.93;36.75;98777.66;4938700;28;20054;-70
2023/08/01 06:04:13;;;;;;;10.63;6.95;;;;;;;33.39;35.79;98750.84;4938751;28;20043;-71
2023/08/01 06:06:40;;;;;;;8.32;6.00;;;;;;;33.89;34.91;98788.56;4940667;28;20042;-70
2023/08/01 06:09:32;;;;;;;13.37;5.33;;;;;;;34.65;33.51;98756.94;4940330;28;20043;-72
2023/08/01 06:11:59;;;;;;;8.73;5.72;;;;;;;35.20;33.26;98746.53;4940187;28;20038;-70
2023/08/01 06:14:25;;;;;;;8.13;5.07;;;;;;;35.54;32.25;98757.59;4940175;28;20442;-72
2023/08/01 06:16:51;;;;;;;6.15;5.38;;;;;;;35.79;31.44;98754.53;4940326;28;20057;-70
2023/08/01 06:19:23;;;;;;;8.35;5.15;;;;;;;36.00;30.84;98763.47;4965883;28;20050;-72
2023/08/01 06:21:55;;;;;;;5.55;4.80;;;;;;;36.40;30.25;98752.94;4950430;28;20051;-70
2023/08/01 06:24:21;;;;;;;8.23;5.22;;;;;;;37.13;30.52;98763.47;4945069;28;20054;-70
2023/08/01 06:26:47;;;;;;;7.97;5.50;;;;;;;37.83;29.24;98763.31;4939519;28;20055;-71
2023/08/01 06:29:14;;;;;;;9.40;5.93;;;;;;;38.29;28.48;98733.38;4939005;28;20050;-72
2023/08/01 06:31:39;;;;;;;7.90;5.28;;;;;;;38.52;27.58;98753.75;4939321;28;20043;-71
2023/08/01 06:34:05;;;;;;;6.03;5.05;;;;;;;37.85;26.80;98750.75;4939448;28;20047;-71
2023/08/01 06:36:32;;;;;;;7.25;5.40;;;;;;;37.71;27.38;98747.97;4938407;28;20038;-71
2023/08/01 06:38:58;;;;;;;7.10;5.18;;;;;;;38.07;26.73;98763.91;4937997;28;20051;-70
2023/08/01 06:41:29;;;;;;;5.90;4.97;;;;;;;38.95;26.24;98762.47;4948380;28;20046;-74
2023/08/01 06:43:59;;;;;;;6.57;5.40;;;;;;;39.60;24.79;98744.41;4922374;28;20489;-70
2023/08/01 06:46:28;;;;;;;6.97;5.18;;;;;;;39.79;24.62;98758.91;4937364;28;20030;-70
2023/08/01 06:48:57;;;;;;;10.77;6.05;;;;;;;40.24;24.54;98753.97;4948196;28;20413;-71
2023/08/01 06:51:23;;;;;;;6.75;5.68;;;;;;;40.66;23.86;98729.19;4946651;28;20027;-70
2023/08/01 06:53:49;;;;;;;6.25;5.28;;;;;;;40.96;23.36;98757.00;4942752;28;20417;-71
2023/08/01 06:56:40;;;;;;;6.45;5.68;;;;;;;40.77;23.19;98756.53;4942614;28;20442;-70
2023/08/01 06:59:06;;;;;;;5.95;5.35;;;;;;;40.73;23.27;98755.56;4939215;28;20054;-71
2023/08/01 07:01:40;;;;;;;7.22;5.90;;;;;;;40.96;23.03;98753.41;4938971;28;20049;-70
2023/08/01 07:04:08;;;;;;;5.80;5.20;;;;;;;41.46;22.90;98750.81;4939085;28;20046;-69
2023/08/01 07:06:33;;;;;;;5.88;5.28;;;;;;;41.52;22.26;98748.69;4938928;28;20043;-71
2023/08/01 07:08:59;;;;;;;8.23;5.30;;;;;;;41.63;22.11;98749.97;4938920;28;20046;-70
2023/08/01 07:11:28;;;;;;;6.28;5.68;;;;;;;41.46;21.90;98758.41;4921161;28;20057;-71
2023/08/01 07:13:54;;;;;;;9.27;6.03;;;;;;;41.51;21.76;98752.63;4937026;28;20493;-71
2023/08/01 07:16:20;;;;;;;6.32;5.72;;;;;;;42.20;21.52;98752.34;4918359;29;20043;-69
2023/08/01 07:19:13;;;;;;;7.28;6.57;;;;;;;43.29;21.02;98750.16;4901714;29;20078;-71
2023/08/01 07:21:38;;;;;;;7.78;6.97;;;;;;;43.64;20.83;98744.16;4934006;28;20043;-71
2023/08/01 07:24:04;;;;;;;8.80;7.50;;;;;;;44.39;20.15;98751.06;4943031;28;20046;-69
2023/08/01 07:26:35;;;;;;;8.20;7.32;;;;;;;44.69;19.59;98739.50;4904949;28;20413;-71
2023/08/01 07:29:02;;;;;;;13.70;7.00;;;;;;;44.53;18.58;98747.88;4936649;28;20058;-70
2023/08/01 07:31:30;;;;;;;11.20;6.90;;;;;;;42.38;20.38;98748.28;4921235;28;20043;-74
2023/08/01 07:33:55;;;;;;;11.38;6.57;;;;;;;39.96;22.55;98752.59;4921030;28;20058;-73
2023/08/01 07:36:22;;;;;;;8.15;6.63;;;;;;;39.14;23.58;98748.38;4938298;28;20054;-74
2023/08/01 07:38:48;;;;;;;6.85;6.15;;;;;;;39.64;23.13;98751.78;4938189;28;20049;-73
2023/08/01 07:41:16;;;;;;;6.90;6.20;;;;;;;40.43;22.57;98768.47;4938105;28;20043;-74
2023/08/01 07:43:43;;;;;;;6.47;5.85;;;;;;;40.78;22.38;98744.19;4936539;28;20630;-73
2023/08/01 07:46:11;;;;;;;7.82;6.57;;;;;;;39.44;23.33;98747.59;4938199;28;20130;-74
2023/08/01 07:49:09;;;;;;;6.68;5.75;;;;;;;38.30;24.88;98748.97;4937118;28;20497;-71
2023/08/01 07:51:36;;;;;;;6.35;5.70;;;;;;;36.11;26.42;98733.63;4938182;28;20402;-71
2023/08/01 07:54:01;;;;;;;5.25;4.75;;;;;;;35.89;27.03;98736.97;4937784;28;20058;-71
2023/08/01 07:56:31;;;;;;;10.07;5.70;;;;;;;35.67;27.14;98745.78;4937692;28;20386;-71
2023/08/01 07:58:57;;;;;;;6.32;5.32;;;;;;;34.67;28.24;98743.63;4936582;28;20049;-70
2023/08/01 08:01:23;;;;;;;7.50;5.15;;;;;;;33.78;29.49;98741.88;4937560;28;20057;-71
2023/08/01 08:03:48;;;;;;;8.70;5.00;;;;;;;33.93;29.69;98735.47;4937205;28;20073;-69
2023/08/01 08:06:16;;;;;;;6.05;4.80;;;;;;;33.86;29.33;98744.88;4936129;28;20409;-70
2023/08/01 08:08:43;;;;;;;6.13;5.20;;;;;;;33.61;30.08;98741.38;4937619;28;20084;-72
2023/08/01 08:11:08;;;;;;;6.53;5.57;;;;;;;33.80;30.44;98737.75;4937639;28;20047;-69
2023/08/01 08:13:34;;;;;;;5.65;5.03;;;;;;;34.65;28.83;98739.50;4937730;28;20449;-69
2023/08/01 08:16:25;;;;;;;6.53;5.00;;;;;;;37.09;26.26;98741.84;4937451;28;20050;-69
2023/08/01 08:18:53;;;;;;;7.22;5.57;;;;;;;38.70;24.06;98738.06;4937418;28;20073;-72
2023/08/01 08:21:20;;;;;;;7.30;5.25;;;;;;;40.61;22.42;98724.63;4936219;28;20409;-71
2023/08/01 08:23:54;;;;;;;7.40;5.45;;;;;;;41.86;20.95;98726.16;4942530;28;20057;-71
2023/08/01 08:26:19;;;;;;;6.88;5.90;;;;;;;42.24;20.48;98728.06;4937086;28;20046;-72
2023/08/01 08:28:44;;;;;;;8.18;6.57;;;;;;;43.20;20.10;98729.78;4937523;28;20784;-75
2023/08/01 08:31:11;;;;;;;7.90;7.20;;;;;;;44.35;18.81;98738.06;4937263;28;20038;-75
2023/08/01 08:33:37;;;;;;;7.78;6.95;;;;;;;45.73;18.38;98716.66;4937364;28;20057;-77
2023/08/01 08:36:28;;;;;;;8.50;7.70;;;;;;;45.71;18.19;98724.69;4937085;28;20046;-74
2023/08/01 08:38:58;;;;;;;8.10;7.25;;;;;;;43.81;19.03;98704.59;4937079;28;20066;-73
2023/08/01 08:41:51;;;;;;;8.70;6.68;;;;;;;42.38;20.52;98720.25;4937035;28;20046;-72
2023/08/01 08:44:20;;;;;;;7.22;6.57;;;;;;;40.63;21.66;98714.72;4916925;29;20394;-72
2023/08/01 08:46:51;;;;;;;7.25;6.55;;;;;;;41.77;20.87;98713.34;4932622;28;20074;-71
2023/08/01 08:49:24;;;;;;;7.83;7.13;;;;;;;43.31;20.02;98705.72;4918044;29;20414;-71
2023/08/01 08:51:55;;;;;;;8.38;7.68;;;;;;;45.33;18.68;98714.03;4931961;28;20054;-74
2023/08/01 08:54:21;;;;;;;8.88;8.07;;;;;;;45.33;18.00;98674.63;4916340;28;20054;-74
2023/08/01 08:56:47;;;;;;;9.98;7.40;;;;;;;43.72;19.09;98712.31;4916131;29;20070;-72
2023/08/01 08:59:15;;;;;;;7.68;7.07;;;;;;;41.31;21.11;98710.22;4917846;29;20043;-71
2023/08/01 09:02:06;;;;;;;11.25;7.07;;;;;;;40.96;22.14;98719.84;4931177;28;20058;-72
2023/08/01 09:10:17;;;;;;;9.63;6.72;;;;;;;39.86;21.91;98706.25;4935541;28;20047;-71
2023/08/01 09:12:49;;;;;;;7.45;6.30;;;;;;;38.15;23.66;98708.34;4934474;28;20058;-71
2023/08/01 09:15:16;;;;;;;7.07;6.38;;;;;;;36.67;25.51;98694.78;4936895;28;20401;-72
2023/08/01 09:17:50;;;;;;;8.00;5.85;;;;;;;35.60;26.95;98712.03;4936857;28;20051;-72
2023/08/01 09:20:15;;;;;;;7.07;5.45;;;;;;;34.32;28.08;98689.34;4934957;28;20047;-72
2023/08/01 09:22:44;;;;;;;8.05;5.63;;;;;;;33.54;29.55;98717.63;4936665;28;20489;-72
2023/08/01 09:25:12;;;;;;;8.45;5.88;;;;;;;33.71;29.53;98697.94;4936772;28;20409;-74
2023/08/01 09:27:40;;;;;;;6.30;5.57;;;;;;;34.71;28.32;98683.78;4936606;28;20051;-72
2023/08/01 09:30:13;;;;;;;8.90;5.65;;;;;;;35.60;27.37;98698.16;4936666;28;20030;-71
2023/08/01 09:33:07;;;;;;;8.23;6.43;;;;;;;36.53;26.37;98686.38;4936756;28;20061;-74
2023/08/01 09:35:39;;;;;;;9.18;7.32;;;;;;;38.87;24.91;98690.78;4936790;28;20473;-73
2023/08/01 09:38:04;;;;;;;7.57;6.72;;;;;;;39.37;23.49;98685.84;4936592;28;20501;-72
2023/08/01 09:40:37;;;;;;;6.93;6.07;;;;;;;39.32;23.30;98704.69;4936564;28;20039;-74
2023/08/01 09:43:03;;;;;;;8.40;7.15;;;;;;;38.21;24.46;98713.81;4936400;28;20043;-74
2023/08/01 09:46:18;;;;;;;6.28;5.63;;;;;;;36.53;26.23;98707.75;4936950;28;20053;-73
2023/08/01 09:48:44;;;;;;;9.65;5.97;;;;;;;35.14;27.46;98703.38;4953168;28;20057;-73
2023/08/01 09:54:06;;;;;;;7.78;5.68;;;;;;;32.57;31.08;98693.94;4935950;28;20046;-74
2023/08/01 09:56:31;;;;;;;7.80;5.90;;;;;;;32.26;31.87;98693.09;4944020;28;20047;-74
2023/08/01 09:59:00;;;;;;;6.43;5.05;;;;;;;32.85;31.07;98689.81;4932553;28;20051;-73
2023/08/01 10:01:26;;;;;;;7.32;5.35;;;;;;;33.11;30.92;98677.63;4934023;28;20417;-74
2023/08/01 10:06:51;;;;;;;6.60;5.68;;;;;;;33.39;31.36;98684.53;4935536;28;20062;-72
2023/08/01 10:09:21;;;;;;;5.45;4.95;;;;;;;32.87;30.88;98679.34;4933596;28;20053;-74
2023/08/01 10:11:49;;;;;;;11.75;5.22;;;;;;;32.00;31.85;98686.66;4935960;28;20050;-73
2023/08/01 10:14:16;;;;;;;7.40;5.07;;;;;;;31.31;31.88;98684.16;4927162;28;20046;-73
2023/08/01 10:16:45;;;;;;;5.97;5.13;;;;;;;30.45;33.45;98694.47;4933429;28;20043;-71
2023/08/01 10:19:14;;;;;;;5.45;4.95;;;;;;;29.93;34.48;98708.75;4930642;28;20067;-70
2023/08/01 10:22:07;;;;;;;7.60;5.13;;;;;;;29.59;35.55;98696.25;4927074;28;20042;-71
2023/08/01 10:24:58;;;;;;;6.97;5.63;;;;;;;29.68;35.63;98693.91;4930791;28;20034;-71
2023/08/01 10:27:26;;;;;;;8.35;5.22;;;;;;;29.22;36.35;98685.03;4939390;28;20046;-71
2023/08/01 10:30:04;;;;;;;7.50;5.30;;;;;;;29.15;37.33;98696.16;4935915;28;20042;-71
2023/08/01 10:32:58;;;;;;;10.38;4.97;;;;;;;29.10;38.26;98678.81;4949089;28;20050;-71
2023/08/01 10:35:38;;;;;;;7.70;5.22;;;;;;;29.33;38.17;98684.09;4921346;28;20527;-73
2023/08/01 10:38:09;;;;;;;5.63;4.90;;;;;;;29.50;37.67;98678.56;4937241;28;20051;-73
2023/08/01 10:41:01;;;;;;;4.88;4.35;;;;;;;29.80;37.74;98672.59;4938425;28;20057;-72
2023/08/01 10:43:27;;;;;;;6.68;4.82;;;;;;;29.64;36.94;98677.09;4914052;28;20035;-73
2023/08/01 10:46:04;;;;;;;6.43;5.32;;;;;;;29.52;37.13;98696.44;4935833;28;20039;-70
2023/08/01 10:48:31;;;;;;;6.20;5.25;;;;;;;29.02;38.15;98680.06;4934744;28;20050;-71
2023/08/01 10:50:58;;;;;;;7.22;4.82;;;;;;;28.72;38.56;98668.59;4936951;28;20414;-72
2023/08/01 10:53:50;;;;;;;10.93;5.00;;;;;;;28.51;38.94;98668.28;4938352;28;20050;-71
2023/08/01 10:56:45;;;;;;;8.07;5.35;;;;;;;28.48;39.00;98673.41;4939037;28;20054;-71
2023/08/01 10:59:12;;;;;;;6.97;5.55;;;;;;;28.37;39.17;98666.09;4938764;28;20045;-71
2023/08/01 11:02:06;;;;;;;8.73;5.80;;;;;;;28.51;38.76;98673.75;4937678;28;20049;-73
2023/08/01 11:04:31;;;;;;;8.05;5.10;;;;;;;28.37;39.21;98660.59;4923680;28;20039;-73
2023/08/01 11:06:57;;;;;;;7.57;5.40;;;;;;;28.26;38.56;98681.53;4918291;28;20057;-71
2023/08/01 11:09:24;;;;;;;12.43;5.50;;;;;;;28.17;38.61;98666.53;4936383;28;20042;-70
2023/08/01 11:11:52;;;;;;;7.40;5.10;;;;;;;27.96;38.92;98637.13;4942939;28;20058;-73
2023/08/01 11:14:27;;;;;;;8.35;4.90;;;;;;;27.85;39.19;98690.88;4937784;28;20509;-70
2023/08/01 11:16:55;;;;;;;6.10;5.18;;;;;;;27.61;39.33;98670.13;4937104;28;20047;-68
2023/08/01 11:19:29;;;;;;;8.15;5.38;;;;;;;27.48;39.61;98663.81;4937715;28;20521;-68
2023/08/01 11:21:59;;;;;;;;;;;;;;;27.66;38.89;98667.47;4939183;28;20058;-69
2023/08/01 11:24:26;;;;;;;8.25;5.43;;;;;;;27.66;40.54;98672.94;4934035;28;19925;-68
2023/08/01 11:26:54;;;;;;;5.72;5.07;;;;;;;27.90;39.87;98666.31;4934105;28;20051;-69
2023/08/01 11:29:20;;;;;;;9.35;5.68;;;;;;;28.07;39.79;98671.84;4938815;28;20047;-69
2023/08/01 11:31:53;;;;;;;6.32;5.03;;;;;;;28.24;39.10;98682.84;4930746;28;20417;-69
2023/08/01 11:34:19;;;;;;;8.23;5.35;;;;;;;28.22;38.30;98680.34;4917479;28;20058;-68
2023/08/01 11:36:45;;;;;;;8.30;4.80;;;;;;;28.24;39.08;98656.28;4935438;28;20047;-67
2023/08/01 11:39:12;;;;;;;7.82;4.97;;;;;;;28.35;39.10;98625.22;4936163;28;20042;-69
2023/08/01 11:41:38;;;;;;;8.32;5.43;;;;;;;28.34;39.21;98652.88;4936762;28;20050;-67
2023/08/01 11:44:06;;;;;;;8.60;4.80;;;;;;;28.40;39.43;98650.00;4923975;28;20046;-68
2023/08/01 11:46:34;;;;;;;6.78;5.05;;;;;;;28.50;39.61;98649.31;4919614;28;20054;-68
2023/08/01 11:49:02;;;;;;;11.20;5.28;;;;;;;28.51;38.35;98654.56;4934868;28;20520;-68
2023/08/01 11:51:29;;;;;;;6.28;5.22;;;;;;;28.21;38.65;98651.31;4937492;28;20053;-69
2023/08/01 11:54:04;;;;;;;6.20;5.60;;;;;;;28.08;39.18;98651.59;4933241;28;20061;-73
2023/08/01 11:56:31;;;;;;;7.28;6.22;;;;;;;27.94;39.59;98652.97;4935291;28;20038;-68
2023/08/01 11:58:58;;;;;;;8.18;6.18;;;;;;;27.74;39.73;98648.78;4933936;28;20046;-70
2023/08/01 12:01:52;;;;;;;5.82;5.22;;;;;;;27.77;40.11;98648.25;4950686;28;20050;-67
2023/08/01 12:04:46;;;;;;;8.35;5.65;;;;;;;27.62;40.35;98653.47;4950229;28;20053;-69
2023/08/01 12:07:16;;;;;;;10.65;5.70;;;;;;;27.49;40.46;98645.50;4943029;28;20058;-69
2023/08/01 12:09:45;;;;;;;6.25;5.38;;;;;;;27.49;40.59;98642.75;4938366;28;20501;-71
2023/08/01 12:12:14;;;;;;;6.07;5.00;;;;;;;27.49;40.87;98642.75;4936456;28;20073;-71
2023/08/01 12:14:42;;;;;;;12.77;6.15;;;;;;;27.48;40.36;98630.97;4937169;28;20047;-69
2023/08/01 12:17:07;;;;;;;8.45;5.47;;;;;;;27.32;41.23;98637.19;4933949;28;20055;-68
2023/08/01 12:19:35;;;;;;;20.02;6.95;;;;;;;27.17;41.71;98636.06;4933122;28;20082;-69